sensor_id;sensor_type;location;lat;lon;timestamp;pressure;altitude;pressure_sealevel;temperature;humidity
5380;BME280;2713;42.680;23.310;2023-02-19T00:01:31;95356.66;;;10.89;50.42
5380;BME280;2713;42.680;23.310;2023-02-19T00:03:59;95351.59;;;10.96;50.08
5380;BME280;2713;42.680;23.310;2023-02-19T00:06:29;95366.69;;;10.78;50.79
5380;BME280;2713;42.680;23.310;2023-02-19T00:08:57;95329.47;;;10.54;51.09
5380;BME280;2713;42.680;23.310;2023-02-19T00:11:26;95348.38;;;10.40;51.80
5380;BME280;2713;42.680;23.310;2023-02-19T00:13:54;95330.41;;;10.61;51.06
5380;BME280;2713;42.680;23.310;2023-02-19T00:16:23;95339.06;;;10.77;50.51
5380;BME280;2713;42.680;23.310;2023-02-19T00:18:51;95343.41;;;10.84;50.18
5380;BME280;2713;42.680;23.310;2023-02-19T00:21:19;95343.91;;;10.80;50.48
5380;BME280;2713;42.680;23.310;2023-02-19T00:23:49;95335.13;;;10.81;50.35
5380;BME280;2713;42.680;23.310;2023-02-19T00:26:16;95333.50;;;10.57;50.62
5380;BME280;2713;42.680;23.310;2023-02-19T00:28:44;95337.88;;;10.79;50.49
5380;BME280;2713;42.680;23.310;2023-02-19T00:31:15;95321.88;;;10.90;50.04
5380;BME280;2713;42.680;23.310;2023-02-19T00:33:43;95320.19;;;10.52;50.96
5380;BME280;2713;42.680;23.310;2023-02-19T00:36:10;95333.16;;;10.60;51.33
5380;BME280;2713;42.680;23.310;2023-02-19T00:38:37;95322.78;;;10.29;51.92
5380;BME280;2713;42.680;23.310;2023-02-19T00:41:07;95326.81;;;10.32;52.04
5380;BME280;2713;42.680;23.310;2023-02-19T00:43:48;95327.59;;;10.40;51.66
5380;BME280;2713;42.680;23.310;2023-02-19T00:46:17;95316.91;;;10.35;51.76
5380;BME280;2713;42.680;23.310;2023-02-19T00:48:44;95310.84;;;10.43;51.82
5380;BME280;2713;42.680;23.310;2023-02-19T00:51:11;95310.50;;;10.23;52.57
5380;BME280;2713;42.680;23.310;2023-02-19T00:53:39;95307.53;;;10.26;52.94
5380;BME280;2713;42.680;23.310;2023-02-19T00:56:07;95298.63;;;10.21;52.87
5380;BME280;2713;42.680;23.310;2023-02-19T00:58:34;95296.78;;;10.37;52.45
5380;BME280;2713;42.680;23.310;2023-02-19T01:01:02;95299.41;;;10.52;52.02
5380;BME280;2713;42.680;23.310;2023-02-19T01:03:30;95302.50;;;10.25;52.57
5380;BME280;2713;42.680;23.310;2023-02-19T01:05:57;95314.22;;;10.21;52.47
5380;BME280;2713;42.680;23.310;2023-02-19T01:08:24;95312.81;;;10.41;52.62
5380;BME280;2713;42.680;23.310;2023-02-19T01:10:52;95299.66;;;10.42;52.08
5380;BME280;2713;42.680;23.310;2023-02-19T01:13:20;95294.69;;;10.33;52.33
5380;BME280;2713;42.680;23.310;2023-02-19T01:15:47;95296.97;;;10.28;52.86
5380;BME280;2713;42.680;23.310;2023-02-19T01:18:14;95299.56;;;10.28;52.73
5380;BME280;2713;42.680;23.310;2023-02-19T01:20:42;95288.53;;;10.26;52.86
5380;BME280;2713;42.680;23.310;2023-02-19T01:23:10;95293.81;;;10.40;52.37
5380;BME280;2713;42.680;23.310;2023-02-19T01:25:38;95309.50;;;10.24;52.86
5380;BME280;2713;42.680;23.310;2023-02-19T01:28:05;95310.16;;;10.26;52.62
5380;BME280;2713;42.680;23.310;2023-02-19T01:30:34;95302.44;;;10.02;53.40
5380;BME280;2713;42.680;23.310;2023-02-19T01:33:02;95321.16;;;10.28;52.54
5380;BME280;2713;42.680;23.310;2023-02-19T01:35:29;95315.31;;;10.34;52.70
5380;BME280;2713;42.680;23.310;2023-02-19T01:37:56;95326.31;;;10.36;52.50
5380;BME280;2713;42.680;23.310;2023-02-19T01:40:24;95319.97;;;10.39;52.69
5380;BME280;2713;42.680;23.310;2023-02-19T01:42:51;95316.16;;;10.49;52.33
5380;BME280;2713;42.680;23.310;2023-02-19T01:45:23;95344.13;;;10.47;52.20
5380;BME280;2713;42.680;23.310;2023-02-19T01:47:58;95352.56;;;10.49;52.11
5380;BME280;2713;42.680;23.310;2023-02-19T01:50:29;95352.56;;;10.49;52.21
5380;BME280;2713;42.680;23.310;2023-02-19T01:52:58;95350.94;;;10.48;52.26
5380;BME280;2713;42.680;23.310;2023-02-19T01:55:28;95359.22;;;10.05;53.10
5380;BME280;2713;42.680;23.310;2023-02-19T01:57:56;95356.91;;;10.26;52.63
5380;BME280;2713;42.680;23.310;2023-02-19T02:00:23;95335.31;;;9.79;53.86
5380;BME280;2713;42.680;23.310;2023-02-19T02:02:55;95355.41;;;9.93;53.92
5380;BME280;2713;42.680;23.310;2023-02-19T02:05:30;95341.22;;;10.03;53.84
5380;BME280;2713;42.680;23.310;2023-02-19T02:08:01;95345.28;;;10.06;53.30
5380;BME280;2713;42.680;23.310;2023-02-19T02:10:47;95342.13;;;9.80;53.68
5380;BME280;2713;42.680;23.310;2023-02-19T02:13:14;95342.84;;;9.65;54.28
5380;BME280;2713;42.680;23.310;2023-02-19T02:15:49;95329.59;;;9.83;54.14
5380;BME280;2713;42.680;23.310;2023-02-19T02:18:30;95342.81;;;10.12;53.15
5380;BME280;2713;42.680;23.310;2023-02-19T02:21:39;95339.22;;;10.22;52.48
5380;BME280;2713;42.680;23.310;2023-02-19T02:24:31;95339.81;;;9.93;53.35
5380;BME280;2713;42.680;23.310;2023-02-19T02:27:27;95340.72;;;10.16;52.79
5380;BME280;2713;42.680;23.310;2023-02-19T02:30:16;95350.41;;;10.30;52.49
5380;BME280;2713;42.680;23.310;2023-02-19T02:32:53;95348.69;;;10.06;52.78
5380;BME280;2713;42.680;23.310;2023-02-19T02:35:24;95344.63;;;10.04;53.24
5380;BME280;2713;42.680;23.310;2023-02-19T02:37:55;95347.53;;;10.17;52.92
5380;BME280;2713;42.680;23.310;2023-02-19T02:40:24;95346.59;;;9.94;52.85
5380;BME280;2713;42.680;23.310;2023-02-19T02:42:51;95354.06;;;9.97;53.26
5380;BME280;2713;42.680;23.310;2023-02-19T02:45:25;95350.44;;;10.14;52.81
5380;BME280;2713;42.680;23.310;2023-02-19T02:48:29;95354.00;;;10.13;53.09
5380;BME280;2713;42.680;23.310;2023-02-19T02:51:04;95347.63;;;9.85;53.51
5380;BME280;2713;42.680;23.310;2023-02-19T02:53:42;95355.25;;;9.86;53.60
5380;BME280;2713;42.680;23.310;2023-02-19T02:56:39;95344.00;;;9.94;53.24
5380;BME280;2713;42.680;23.310;2023-02-19T02:59:09;95343.84;;;9.95;53.46
5380;BME280;2713;42.680;23.310;2023-02-19T03:01:41;95347.91;;;9.98;53.29
5380;BME280;2713;42.680;23.310;2023-02-19T03:04:31;95344.81;;;10.02;52.96
5380;BME280;2713;42.680;23.310;2023-02-19T03:07:02;95341.91;;;9.97;53.33
5380;BME280;2713;42.680;23.310;2023-02-19T03:09:34;95348.88;;;9.97;53.26
5380;BME280;2713;42.680;23.310;2023-02-19T03:12:10;95346.59;;;9.94;53.08
5380;BME280;2713;42.680;23.310;2023-02-19T03:14:58;95353.78;;;9.92;53.50
5380;BME280;2713;42.680;23.310;2023-02-19T03:17:49;95348.09;;;9.96;53.27
5380;BME280;2713;42.680;23.310;2023-02-19T03:20:37;95354.41;;;9.94;53.31
5380;BME280;2713;42.680;23.310;2023-02-19T03:23:08;95366.75;;;10.00;52.96
5380;BME280;2713;42.680;23.310;2023-02-19T03:25:37;95371.19;;;9.67;54.00
5380;BME280;2713;42.680;23.310;2023-02-19T03:28:34;95377.25;;;9.35;54.94
5380;BME280;2713;42.680;23.310;2023-02-19T03:31:23;95380.34;;;9.23;55.30
5380;BME280;2713;42.680;23.310;2023-02-19T03:34:00;95375.75;;;9.49;54.50
5380;BME280;2713;42.680;23.310;2023-02-19T03:36:33;95387.44;;;9.69;54.11
5380;BME280;2713;42.680;23.310;2023-02-19T03:39:04;95393.25;;;9.71;54.44
5380;BME280;2713;42.680;23.310;2023-02-19T03:41:35;95393.75;;;9.75;54.11
5380;BME280;2713;42.680;23.310;2023-02-19T03:44:08;95392.78;;;9.67;54.22
5380;BME280;2713;42.680;23.310;2023-02-19T03:46:43;95395.22;;;9.69;54.32
5380;BME280;2713;42.680;23.310;2023-02-19T03:49:17;95392.09;;;9.74;54.43
5380;BME280;2713;42.680;23.310;2023-02-19T03:51:50;95397.00;;;9.68;54.20
5380;BME280;2713;42.680;23.310;2023-02-19T03:54:24;95399.59;;;9.68;54.01
5380;BME280;2713;42.680;23.310;2023-02-19T03:56:59;95402.69;;;9.64;54.73
5380;BME280;2713;42.680;23.310;2023-02-19T03:59:31;95404.63;;;9.62;54.67
5380;BME280;2713;42.680;23.310;2023-02-19T04:02:02;95408.38;;;9.51;54.60
5380;BME280;2713;42.680;23.310;2023-02-19T04:04:35;95412.09;;;9.49;54.88
5380;BME280;2713;42.680;23.310;2023-02-19T04:07:03;95408.72;;;9.40;55.35
5380;BME280;2713;42.680;23.310;2023-02-19T04:09:36;95411.63;;;9.05;56.06
5380;BME280;2713;42.680;23.310;2023-02-19T04:12:09;95410.19;;;9.10;56.04
5380;BME280;2713;42.680;23.310;2023-02-19T04:14:39;95411.63;;;9.37;55.35
5380;BME280;2713;42.680;23.310;2023-02-19T04:17:13;95406.13;;;9.40;54.70
5380;BME280;2713;42.680;23.310;2023-02-19T04:19:46;95398.50;;;9.31;55.20
5380;BME280;2713;42.680;23.310;2023-02-19T04:22:14;95409.69;;;9.47;54.81
5380;BME280;2713;42.680;23.310;2023-02-19T04:24:46;95414.06;;;9.47;55.02
5380;BME280;2713;42.680;23.310;2023-02-19T04:27:14;95419.56;;;9.52;54.66
5380;BME280;2713;42.680;23.310;2023-02-19T04:29:41;95421.03;;;9.54;54.02
5380;BME280;2713;42.680;23.310;2023-02-19T04:32:09;95424.75;;;9.44;54.28
5380;BME280;2713;42.680;23.310;2023-02-19T04:34:36;95422.31;;;9.18;55.08
5380;BME280;2713;42.680;23.310;2023-02-19T04:37:05;95430.75;;;9.20;54.84
5380;BME280;2713;42.680;23.310;2023-02-19T04:39:32;95427.50;;;9.26;55.08
5380;BME280;2713;42.680;23.310;2023-02-19T04:41:59;95427.16;;;9.05;55.81
5380;BME280;2713;42.680;23.310;2023-02-19T04:44:26;95422.31;;;9.18;55.55
5380;BME280;2713;42.680;23.310;2023-02-19T04:46:53;95422.97;;;9.20;54.97
5380;BME280;2713;42.680;23.310;2023-02-19T04:49:20;95424.09;;;9.26;55.34
5380;BME280;2713;42.680;23.310;2023-02-19T04:51:46;95426.56;;;9.27;55.47
5380;BME280;2713;42.680;23.310;2023-02-19T04:54:15;95428.00;;;9.54;57.18
5380;BME280;2713;42.680;23.310;2023-02-19T04:56:41;95431.88;;;9.42;55.03
5380;BME280;2713;42.680;23.310;2023-02-19T04:59:08;95434.97;;;9.29;54.96
5380;BME280;2713;42.680;23.310;2023-02-19T05:01:35;95425.41;;;9.30;55.20
5380;BME280;2713;42.680;23.310;2023-02-19T05:04:02;95431.41;;;9.38;54.68
5380;BME280;2713;42.680;23.310;2023-02-19T05:06:29;95424.91;;;9.42;54.47
5380;BME280;2713;42.680;23.310;2023-02-19T05:08:56;95423.63;;;9.54;54.41
5380;BME280;2713;42.680;23.310;2023-02-19T05:11:24;95429.63;;;9.55;54.30
5380;BME280;2713;42.680;23.310;2023-02-19T05:13:51;95433.00;;;9.15;55.02
5380;BME280;2713;42.680;23.310;2023-02-19T05:16:18;95445.75;;;8.68;56.63
5380;BME280;2713;42.680;23.310;2023-02-19T05:18:45;95446.81;;;8.49;58.61
5380;BME280;2713;42.680;23.310;2023-02-19T05:21:13;95441.25;;;8.36;58.23
5380;BME280;2713;42.680;23.310;2023-02-19T05:23:40;95450.31;;;8.32;58.09
5380;BME280;2713;42.680;23.310;2023-02-19T05:26:10;95452.69;;;8.59;57.16
5380;BME280;2713;42.680;23.310;2023-02-19T05:28:39;95447.09;;;8.96;56.59
5380;BME280;2713;42.680;23.310;2023-02-19T05:31:07;95447.91;;;9.05;55.99
5380;BME280;2713;42.680;23.310;2023-02-19T05:33:34;95448.56;;;9.15;55.98
5380;BME280;2713;42.680;23.310;2023-02-19T05:36:05;95441.31;;;9.10;55.98
5380;BME280;2713;42.680;23.310;2023-02-19T05:38:32;95455.72;;;9.29;55.65
5380;BME280;2713;42.680;23.310;2023-02-19T05:41:06;95461.88;;;9.36;55.56
5380;BME280;2713;42.680;23.310;2023-02-19T05:43:33;95457.34;;;9.46;55.66
5380;BME280;2713;42.680;23.310;2023-02-19T05:46:01;95460.44;;;9.34;55.84
5380;BME280;2713;42.680;23.310;2023-02-19T05:48:28;95456.69;;;9.28;55.44
5380;BME280;2713;42.680;23.310;2023-02-19T05:51:00;95449.38;;;9.32;55.13
5380;BME280;2713;42.680;23.310;2023-02-19T05:53:27;95461.72;;;9.54;54.82
5380;BME280;2713;42.680;23.310;2023-02-19T05:55:54;95464.81;;;9.49;55.39
5380;BME280;2713;42.680;23.310;2023-02-19T05:58:21;95467.22;;;9.67;54.96
5380;BME280;2713;42.680;23.310;2023-02-19T06:00:48;95467.88;;;9.85;54.59
5380;BME280;2713;42.680;23.310;2023-02-19T06:03:16;95485.72;;;9.80;54.50
5380;BME280;2713;42.680;23.310;2023-02-19T06:05:43;95484.75;;;9.89;54.34
5380;BME280;2713;42.680;23.310;2023-02-19T06:08:12;95483.75;;;9.98;54.29
5380;BME280;2713;42.680;23.310;2023-02-19T06:10:39;95489.41;;;10.10;53.90
5380;BME280;2713;42.680;23.310;2023-02-19T06:13:07;95492.66;;;10.20;54.05
5380;BME280;2713;42.680;23.310;2023-02-19T06:15:34;95497.97;;;10.35;53.67
5380;BME280;2713;42.680;23.310;2023-02-19T06:18:02;95502.06;;;10.29;53.94
5380;BME280;2713;42.680;23.310;2023-02-19T06:20:30;95502.25;;;10.20;54.36
5380;BME280;2713;42.680;23.310;2023-02-19T06:22:57;95500.75;;;10.25;54.03
5380;BME280;2713;42.680;23.310;2023-02-19T06:25:24;95501.25;;;10.29;54.04
5380;BME280;2713;42.680;23.310;2023-02-19T06:27:50;95504.78;;;10.36;53.91
5380;BME280;2713;42.680;23.310;2023-02-19T06:30:17;95503.78;;;10.45;53.75
5380;BME280;2713;42.680;23.310;2023-02-19T06:32:44;95498.16;;;10.33;53.95
5380;BME280;2713;42.680;23.310;2023-02-19T06:35:11;95502.69;;;10.31;54.45
5380;BME280;2713;42.680;23.310;2023-02-19T06:37:39;95500.06;;;10.47;53.80
5380;BME280;2713;42.680;23.310;2023-02-19T06:40:07;95498.88;;;10.58;53.41
5380;BME280;2713;42.680;23.310;2023-02-19T06:42:34;95493.91;;;10.79;52.76
5380;BME280;2713;42.680;23.310;2023-02-19T06:45:01;95499.53;;;10.91;52.52
5380;BME280;2713;42.680;23.310;2023-02-19T06:47:30;95501.09;;;11.08;52.46
5380;BME280;2713;42.680;23.310;2023-02-19T06:49:57;95505.59;;;11.14;52.30
5380;BME280;2713;42.680;23.310;2023-02-19T06:52:24;95502.28;;;11.20;51.92
5380;BME280;2713;42.680;23.310;2023-02-19T06:54:52;95500.59;;;11.35;51.57
5380;BME280;2713;42.680;23.310;2023-02-19T06:57:19;95502.09;;;11.52;51.25
5380;BME280;2713;42.680;23.310;2023-02-19T06:59:46;95510.44;;;11.71;50.42
5380;BME280;2713;42.680;23.310;2023-02-19T07:02:12;95514.25;;;11.83;49.89
5380;BME280;2713;42.680;23.310;2023-02-19T07:04:39;95514.00;;;11.69;50.01
5380;BME280;2713;42.680;23.310;2023-02-19T07:07:09;95516.16;;;11.66;50.46
5380;BME280;2713;42.680;23.310;2023-02-19T07:09:36;95510.44;;;11.71;49.96
5380;BME280;2713;42.680;23.310;2023-02-19T07:12:05;95502.75;;;11.77;49.58
5380;BME280;2713;42.680;23.310;2023-02-19T07:14:32;95513.28;;;11.84;49.36
5380;BME280;2713;42.680;23.310;2023-02-19T07:16:58;95514.41;;;12.04;48.58
5380;BME280;2713;42.680;23.310;2023-02-19T07:19:25;95508.38;;;12.03;48.50
5380;BME280;2713;42.680;23.310;2023-02-19T07:21:52;95502.38;;;12.17;48.29
5380;BME280;2713;42.680;23.310;2023-02-19T07:24:19;95496.63;;;12.22;48.38
5380;BME280;2713;42.680;23.310;2023-02-19T07:26:46;95494.56;;;12.32;48.04
5380;BME280;2713;42.680;23.310;2023-02-19T07:29:15;95500.31;;;12.86;46.90
5380;BME280;2713;42.680;23.310;2023-02-19T07:31:42;95484.19;;;13.33;46.05
5380;BME280;2713;42.680;23.310;2023-02-19T07:34:09;95491.34;;;13.67;45.38
5380;BME280;2713;42.680;23.310;2023-02-19T07:36:35;95482.06;;;14.13;44.54
5380;BME280;2713;42.680;23.310;2023-02-19T07:39:03;95482.78;;;14.63;43.15
5380;BME280;2713;42.680;23.310;2023-02-19T07:41:30;95478.31;;;14.91;42.24
5380;BME280;2713;42.680;23.310;2023-02-19T07:43:57;95479.63;;;15.21;41.70
5380;BME280;2713;42.680;23.310;2023-02-19T07:46:25;95479.88;;;15.46;41.45
5380;BME280;2713;42.680;23.310;2023-02-19T07:48:52;95475.91;;;15.83;41.21
5380;BME280;2713;42.680;23.310;2023-02-19T07:51:19;95475.31;;;16.01;40.28
5380;BME280;2713;42.680;23.310;2023-02-19T07:53:47;95467.03;;;16.04;40.08
5380;BME280;2713;42.680;23.310;2023-02-19T07:56:15;95465.22;;;16.04;40.31
5380;BME280;2713;42.680;23.310;2023-02-19T07:58:42;95476.47;;;16.44;39.92
5380;BME280;2713;42.680;23.310;2023-02-19T08:01:13;95465.16;;;16.50;39.67
5380;BME280;2713;42.680;23.310;2023-02-19T08:03:42;95467.78;;;16.63;39.25
5380;BME280;2713;42.680;23.310;2023-02-19T08:06:08;95472.16;;;16.83;39.30
5380;BME280;2713;42.680;23.310;2023-02-19T08:08:36;95470.84;;;17.11;38.88
5380;BME280;2713;42.680;23.310;2023-02-19T08:11:04;95468.28;;;17.36;38.50
5380;BME280;2713;42.680;23.310;2023-02-19T08:13:50;95457.69;;;17.49;37.67
5380;BME280;2713;42.680;23.310;2023-02-19T08:16:18;95459.22;;;17.32;38.33
5380;BME280;2713;42.680;23.310;2023-02-19T08:18:47;95459.41;;;17.68;37.70
5380;BME280;2713;42.680;23.310;2023-02-19T08:21:14;95445.53;;;17.86;37.20
5380;BME280;2713;42.680;23.310;2023-02-19T08:23:43;95462.00;;;18.00;37.08
5380;BME280;2713;42.680;23.310;2023-02-19T08:26:11;95450.91;;;17.98;36.55
5380;BME280;2713;42.680;23.310;2023-02-19T08:28:38;95452.59;;;17.86;36.80
5380;BME280;2713;42.680;23.310;2023-02-19T08:31:06;95454.09;;;17.75;37.06
5380;BME280;2713;42.680;23.310;2023-02-19T08:33:34;95459.34;;;17.75;36.88
5380;BME280;2713;42.680;23.310;2023-02-19T08:36:03;95462.06;;;17.93;36.72
5380;BME280;2713;42.680;23.310;2023-02-19T08:38:31;95453.50;;;18.22;36.60
5380;BME280;2713;42.680;23.310;2023-02-19T08:41:03;95449.81;;;18.48;36.34
5380;BME280;2713;42.680;23.310;2023-02-19T08:43:30;95449.66;;;18.43;35.21
5380;BME280;2713;42.680;23.310;2023-02-19T08:45:56;95438.69;;;18.03;36.08
5380;BME280;2713;42.680;23.310;2023-02-19T08:48:23;95437.75;;;18.16;35.52
5380;BME280;2713;42.680;23.310;2023-02-19T08:50:54;95433.44;;;17.79;36.57
5380;BME280;2713;42.680;23.310;2023-02-19T08:53:23;95436.47;;;17.44;37.48
5380;BME280;2713;42.680;23.310;2023-02-19T08:55:51;95412.78;;;17.82;37.18
5380;BME280;2713;42.680;23.310;2023-02-19T08:58:17;95427.13;;;18.47;36.01
5380;BME280;2713;42.680;23.310;2023-02-19T09:00:44;95421.75;;;18.79;35.12
5380;BME280;2713;42.680;23.310;2023-02-19T09:03:11;95422.03;;;18.70;35.58
5380;BME280;2713;42.680;23.310;2023-02-19T09:05:38;95425.34;;;18.23;36.66
5380;BME280;2713;42.680;23.310;2023-02-19T09:08:05;95419.75;;;17.95;37.11
5380;BME280;2713;42.680;23.310;2023-02-19T09:10:33;95422.53;;;17.44;37.82
5380;BME280;2713;42.680;23.310;2023-02-19T09:13:00;95409.56;;;17.17;38.72
5380;BME280;2713;42.680;23.310;2023-02-19T09:15:27;95412.06;;;17.37;38.27
5380;BME280;2713;42.680;23.310;2023-02-19T09:17:55;95397.53;;;17.35;38.28
5380;BME280;2713;42.680;23.310;2023-02-19T09:20:22;95392.56;;;17.51;37.84
5380;BME280;2713;42.680;23.310;2023-02-19T09:22:48;95399.81;;;17.24;38.79
5380;BME280;2713;42.680;23.310;2023-02-19T09:25:15;95399.50;;;17.46;38.56
5380;BME280;2713;42.680;23.310;2023-02-19T09:27:44;95399.91;;;17.43;39.12
5380;BME280;2713;42.680;23.310;2023-02-19T09:30:11;95389.72;;;17.59;38.91
5380;BME280;2713;42.680;23.310;2023-02-19T09:32:38;95398.88;;;17.44;39.52
5380;BME280;2713;42.680;23.310;2023-02-19T09:35:05;95397.28;;;17.11;40.08
5380;BME280;2713;42.680;23.310;2023-02-19T09:37:32;95387.78;;;17.10;39.98
5380;BME280;2713;42.680;23.310;2023-02-19T09:39:59;95392.19;;;17.16;40.12
5380;BME280;2713;42.680;23.310;2023-02-19T09:42:27;95394.97;;;16.90;40.76
5380;BME280;2713;42.680;23.310;2023-02-19T09:44:58;95392.34;;;16.90;40.81
5380;BME280;2713;42.680;23.310;2023-02-19T09:47:28;95395.50;;;16.67;41.07
5380;BME280;2713;42.680;23.310;2023-02-19T09:49:58;95387.84;;;16.53;41.14
5380;BME280;2713;42.680;23.310;2023-02-19T09:52:30;95387.09;;;16.39;40.86
5380;BME280;2713;42.680;23.310;2023-02-19T09:55:00;95382.47;;;16.28;40.87
5380;BME280;2713;42.680;23.310;2023-02-19T09:57:30;95378.63;;;16.31;40.76
5380;BME280;2713;42.680;23.310;2023-02-19T10:00:03;95372.56;;;16.30;39.99
5380;BME280;2713;42.680;23.310;2023-02-19T10:02:31;95348.28;;;16.48;39.72
5380;BME280;2713;42.680;23.310;2023-02-19T10:04:58;95354.50;;;16.66;39.26
5380;BME280;2713;42.680;23.310;2023-02-19T10:07:34;95337.66;;;16.81;38.93
5380;BME280;2713;42.680;23.310;2023-02-19T10:10:20;95318.97;;;16.95;38.29
5380;BME280;2713;42.680;23.310;2023-02-19T10:12:51;95330.28;;;17.27;37.52
5380;BME280;2713;42.680;23.310;2023-02-19T10:15:24;95321.59;;;17.27;37.81
5380;BME280;2713;42.680;23.310;2023-02-19T10:17:53;95319.88;;;17.39;37.68
5380;BME280;2713;42.680;23.310;2023-02-19T10:20:21;95314.16;;;17.48;37.52
5380;BME280;2713;42.680;23.310;2023-02-19T10:22:56;95315.06;;;17.60;37.21
5380;BME280;2713;42.680;23.310;2023-02-19T10:25:24;95298.94;;;17.50;37.17
5380;BME280;2713;42.680;23.310;2023-02-19T10:27:51;95293.47;;;17.58;37.24
5380;BME280;2713;42.680;23.310;2023-02-19T10:30:23;95297.63;;;17.41;37.07
5380;BME280;2713;42.680;23.310;2023-02-19T10:32:59;95288.53;;;17.19;37.25
5380;BME280;2713;42.680;23.310;2023-02-19T10:35:26;95289.63;;;17.05;38.07
5380;BME280;2713;42.680;23.310;2023-02-19T10:37:54;95282.78;;;17.04;37.66
5380;BME280;2713;42.680;23.310;2023-02-19T10:40:24;95271.19;;;17.11;37.77
5380;BME280;2713;42.680;23.310;2023-02-19T10:42:52;95270.41;;;17.11;37.61
5380;BME280;2713;42.680;23.310;2023-02-19T10:45:24;95248.38;;;17.12;37.44
5380;BME280;2713;42.680;23.310;2023-02-19T10:47:51;95258.97;;;17.23;37.29
5380;BME280;2713;42.680;23.310;2023-02-19T10:50:24;95250.00;;;17.31;37.32
5380;BME280;2713;42.680;23.310;2023-02-19T10:52:54;95237.63;;;17.38;37.03
5380;BME280;2713;42.680;23.310;2023-02-19T10:55:27;95238.88;;;17.36;37.49
5380;BME280;2713;42.680;23.310;2023-02-19T10:57:54;95226.19;;;17.26;37.32
5380;BME280;2713;42.680;23.310;2023-02-19T11:00:24;95237.44;;;17.15;37.44
5380;BME280;2713;42.680;23.310;2023-02-19T11:03:13;95229.25;;;17.23;37.64
5380;BME280;2713;42.680;23.310;2023-02-19T11:05:50;95214.91;;;17.26;37.41
5380;BME280;2713;42.680;23.310;2023-02-19T11:08:22;95206.47;;;17.17;37.62
5380;BME280;2713;42.680;23.310;2023-02-19T11:10:49;95208.09;;;17.18;37.30
5380;BME280;2713;42.680;23.310;2023-02-19T11:13:22;95198.59;;;17.17;37.47
5380;BME280;2713;42.680;23.310;2023-02-19T11:15:54;95199.97;;;17.19;37.55
5380;BME280;2713;42.680;23.310;2023-02-19T11:18:22;95189.31;;;17.39;37.05
5380;BME280;2713;42.680;23.310;2023-02-19T11:20:52;95193.56;;;17.58;37.20
5380;BME280;2713;42.680;23.310;2023-02-19T11:23:24;95165.94;;;17.86;36.77
5380;BME280;2713;42.680;23.310;2023-02-19T11:25:53;95167.28;;;18.06;35.42
5380;BME280;2713;42.680;23.310;2023-02-19T11:28:27;95163.47;;;18.20;35.13
5380;BME280;2713;42.680;23.310;2023-02-19T11:31:12;95169.91;;;18.36;34.85
5380;BME280;2713;42.680;23.310;2023-02-19T11:33:44;95147.97;;;18.42;34.55
5380;BME280;2713;42.680;23.310;2023-02-19T11:36:32;95153.44;;;18.70;34.39
5380;BME280;2713;42.680;23.310;2023-02-19T11:39:14;95155.16;;;18.77;34.01
5380;BME280;2713;42.680;23.310;2023-02-19T11:42:00;95145.53;;;18.70;34.31
5380;BME280;2713;42.680;23.310;2023-02-19T11:44:37;95150.34;;;18.85;33.88
5380;BME280;2713;42.680;23.310;2023-02-19T11:47:31;95139.72;;;18.80;33.65
5380;BME280;2713;42.680;23.310;2023-02-19T11:50:14;95139.84;;;18.97;33.32
5380;BME280;2713;42.680;23.310;2023-02-19T11:52:53;95131.56;;;19.05;32.83
5380;BME280;2713;42.680;23.310;2023-02-19T11:55:35;95140.41;;;18.99;32.96
5380;BME280;2713;42.680;23.310;2023-02-19T11:58:14;95132.63;;;19.04;33.08
5380;BME280;2713;42.680;23.310;2023-02-19T12:00:53;95122.53;;;19.24;32.48
5380;BME280;2713;42.680;23.310;2023-02-19T12:03:34;95115.72;;;19.40;31.79
5380;BME280;2713;42.680;23.310;2023-02-19T12:06:22;95107.72;;;19.46;31.86
5380;BME280;2713;42.680;23.310;2023-02-19T12:09:05;95106.34;;;19.44;31.59
5380;BME280;2713;42.680;23.310;2023-02-19T12:11:56;95097.88;;;19.30;31.86
5380;BME280;2713;42.680;23.310;2023-02-19T12:14:56;95093.19;;;19.20;31.75
5380;BME280;2713;42.680;23.310;2023-02-19T12:17:42;95087.13;;;19.20;32.07
5380;BME280;2713;42.680;23.310;2023-02-19T12:20:22;95083.47;;;19.21;31.64
5380;BME280;2713;42.680;23.310;2023-02-19T12:23:01;95087.34;;;19.18;31.67
5380;BME280;2713;42.680;23.310;2023-02-19T12:25:48;95074.53;;;19.10;31.72
5380;BME280;2713;42.680;23.310;2023-02-19T12:28:38;95071.97;;;19.27;31.38
5380;BME280;2713;42.680;23.310;2023-02-19T12:31:23;95061.38;;;19.39;31.25
5380;BME280;2713;42.680;23.310;2023-02-19T12:34:21;95053.72;;;19.49;31.14
5380;BME280;2713;42.680;23.310;2023-02-19T12:37:02;95054.97;;;19.58;31.07
5380;BME280;2713;42.680;23.310;2023-02-19T12:39:46;95042.34;;;19.60;30.95
5380;BME280;2713;42.680;23.310;2023-02-19T12:42:24;95030.84;;;19.26;30.62
5380;BME280;2713;42.680;23.310;2023-02-19T12:44:57;95034.28;;;19.15;31.21
5380;BME280;2713;42.680;23.310;2023-02-19T12:47:31;95036.47;;;19.18;31.15
5380;BME280;2713;42.680;23.310;2023-02-19T12:50:04;95030.94;;;19.31;31.46
5380;BME280;2713;42.680;23.310;2023-02-19T12:52:37;95018.56;;;19.43;31.13
5380;BME280;2713;42.680;23.310;2023-02-19T12:55:16;95012.19;;;19.56;30.71
5380;BME280;2713;42.680;23.310;2023-02-19T12:57:46;94999.28;;;19.43;31.25
5380;BME280;2713;42.680;23.310;2023-02-19T13:00:24;94973.03;;;19.36;31.23
5380;BME280;2713;42.680;23.310;2023-02-19T13:02:58;94997.09;;;19.40;32.35
5380;BME280;2713;42.680;23.310;2023-02-19T13:05:34;94998.84;;;19.34;32.73
5380;BME280;2713;42.680;23.310;2023-02-19T13:08:06;94998.84;;;19.34;33.11
5380;BME280;2713;42.680;23.310;2023-02-19T13:10:39;94993.91;;;19.38;31.43
5380;BME280;2713;42.680;23.310;2023-02-19T13:13:14;94984.75;;;19.29;31.45
5380;BME280;2713;42.680;23.310;2023-02-19T13:15:45;94983.50;;;19.31;32.21
5380;BME280;2713;42.680;23.310;2023-02-19T13:18:16;94974.97;;;19.12;32.06
5380;BME280;2713;42.680;23.310;2023-02-19T13:20:44;94971.44;;;19.07;32.71
5380;BME280;2713;42.680;23.310;2023-02-19T13:23:19;94978.81;;;19.21;33.20
5380;BME280;2713;42.680;23.310;2023-02-19T13:26:27;94961.63;;;19.31;32.89
5380;BME280;2713;42.680;23.310;2023-02-19T13:29:15;94959.81;;;19.19;32.12
5380;BME280;2713;42.680;23.310;2023-02-19T13:32:15;94956.66;;;19.06;32.15
5380;BME280;2713;42.680;23.310;2023-02-19T13:34:53;94949.47;;;19.30;32.98
5380;BME280;2713;42.680;23.310;2023-02-19T13:37:24;94944.19;;;19.30;32.06
5380;BME280;2713;42.680;23.310;2023-02-19T13:39:54;94934.69;;;19.29;32.20